^^
Meteo Knjazevac Station Historical Data
Daily Summary for May 9, 2022 Units:  English    Metric   Both
Daily Weekly Monthly Yearly Custom
  High: Low: Average:
Temperature: 65.1 °F 34.9 °F 47.2 °F
Dew Point: 56.2 °F 34.6 °F 44.8 °F
Humidity: 99% 72% 92%
Wind Speed: 8.4mph 0mph 3.4mph
Wind Gust: 11mph - -
Wind- - SW
Pressure: 30.26 in 30.18 in -
Precipitation: 0.00 in    
Historical Graphs
 
 
Tabular Data for May 9, 2022
Time Temperature Dew Point Pressure Wind Wind Speed Wind Gust Humidity Rainfall Rate (Hourly) solar Conditions
00:04 41.8 °F 41.6 °F 30.23 in West 2.1 mph 4 mph 99% 0.00 in 0 W/m2
00:09 41.7 °F 41.5 °F 30.23 in West 2.8 mph 2 mph 99% 0.00 in 0 W/m2
00:14 41.5 °F 41.3 °F 30.23 in West 2.5 mph 3 mph 99% 0.00 in 0 W/m2
00:19 41.5 °F 41.2 °F 30.23 in WNW 2.6 mph 3 mph 99% 0.00 in 0 W/m2
00:24 41.4 °F 41.1 °F 30.23 in WNW 2.2 mph 3 mph 99% 0.00 in 0 W/m2
00:29 41.1 °F 40.8 °F 30.23 in West 3.2 mph 2.5 mph 99% 0.00 in 0 W/m2
00:34 40.9 °F 40.6 °F 30.23 in West 3.5 mph 4 mph 99% 0.00 in 0 W/m2
00:39 40.8 °F 40.6 °F 30.23 in WNW 3.4 mph 4 mph 99% 0.00 in 0 W/m2
00:44 40.8 °F 40.6 °F 30.23 in West 3.2 mph 4 mph 99% 0.00 in 0 W/m2
00:49 40.7 °F 40.5 °F 30.23 in West 4.3 mph 4 mph 99% 0.00 in 0 W/m2
00:54 40.6 °F 40.3 °F 30.23 in West 4.8 mph 5 mph 99% 0.00 in 0 W/m2
00:59 40.6 °F 40.3 °F 30.23 in WNW 5.2 mph 6 mph 99% 0.00 in 0 W/m2
01:04 40.7 °F 40.5 °F 30.23 in WNW 4.5 mph 6 mph 99% 0.00 in 0 W/m2
01:09 40.7 °F 40.5 °F 30.23 in West 3.2 mph 5 mph 99% 0.00 in 0 W/m2
01:14 40.4 °F 40.1 °F 30.23 in West 3 mph 3 mph 99% 0.00 in 0 W/m2
01:19 40.2 °F 39.9 °F 30.23 in West 2.4 mph 3 mph 99% 0.00 in 0 W/m2
01:24 40 °F 39.7 °F 30.23 in West 2.2 mph 2.2 mph 99% 0.00 in 0 W/m2
01:29 39.7 °F 39.4 °F 30.23 in West 3.1 mph 3.4 mph 99% 0.00 in 0 W/m2
01:34 39.4 °F 39.1 °F 30.23 in West 3.6 mph 4 mph 99% 0.00 in 0 W/m2
01:39 39.2 °F 38.9 °F 30.23 in West 3.5 mph 4 mph 99% 0.00 in 0 W/m2
01:44 39.2 °F 38.9 °F 30.23 in West 3.1 mph 4 mph 99% 0.00 in 0 W/m2
01:49 39.2 °F 38.9 °F 30.23 in West 3 mph 3 mph 99% 0.00 in 0 W/m2
01:54 39.1 °F 38.9 °F 30.23 in West 3.2 mph 3 mph 99% 0.00 in 0 W/m2
01:59 39 °F 38.8 °F 30.23 in West 2.7 mph 3 mph 99% 0.00 in 0 W/m2
02:04 39 °F 38.8 °F 30.23 in West 3.4 mph 3.1 mph 99% 0.00 in 0 W/m2
02:09 38.9 °F 38.7 °F 30.23 in West 3.4 mph 4 mph 99% 0.00 in 0 W/m2
02:14 38.8 °F 38.6 °F 30.23 in West 3.1 mph 4 mph 99% 0.00 in 0 W/m2
02:19 38.7 °F 38.4 °F 30.23 in West 3 mph 3 mph 99% 0.00 in 0 W/m2
02:24 38.5 °F 38.2 °F 30.23 in West 2.8 mph 3 mph 99% 0.00 in 0 W/m2
02:29 38.5 °F 38.2 °F 30.23 in West 3 mph 3 mph 99% 0.00 in 0 W/m2
02:34 38.3 °F 38 °F 30.23 in West 3.3 mph 3 mph 99% 0.00 in 0 W/m2
02:39 38.2 °F 38 °F 30.23 in West 2.5 mph 4 mph 99% 0.00 in 0 W/m2
02:44 38.1 °F 37.9 °F 30.23 in West 2.5 mph 3 mph 99% 0.00 in 0 W/m2
02:49 38.1 °F 37.9 °F 30.23 in WNW 2.4 mph 3 mph 99% 0.00 in 0 W/m2
02:54 38.1 °F 37.9 °F 30.23 in WNW 2.2 mph 3 mph 99% 0.00 in 0 W/m2
02:59 38.1 °F 37.9 °F 30.23 in WNW 2 mph 2 mph 99% 0.00 in 0 W/m2
03:04 37.9 °F 37.7 °F 30.23 in WNW 1.8 mph 2 mph 99% 0.00 in 0 W/m2
03:09 37.8 °F 37.6 °F 30.23 in NW 2 mph 2 mph 99% 0.00 in 0 W/m2
03:14 37.8 °F 37.5 °F 30.23 in WNW 2.1 mph 2 mph 99% 0.00 in 0 W/m2
03:19 37.6 °F 37.3 °F 30.23 in WNW 2.3 mph 2 mph 99% 0.00 in 0 W/m2
03:24 37.6 °F 37.3 °F 30.23 in WNW 3.4 mph 3 mph 99% 0.00 in 0 W/m2
03:29 37.6 °F 37.3 °F 30.23 in WNW 2.6 mph 3 mph 99% 0.00 in 0 W/m2
03:34 37.6 °F 37.3 °F 30.23 in West 3.5 mph 3 mph 99% 0.00 in 0 W/m2
03:39 37.4 °F 37.1 °F 30.23 in West 3.5 mph 4 mph 99% 0.00 in 0 W/m2
03:44 37.4 °F 37.1 °F 30.23 in WNW 2.7 mph 4 mph 99% 0.00 in 0 W/m2
03:49 37.4 °F 37.1 °F 30.23 in WNW 2 mph 3 mph 99% 0.00 in 0 W/m2
03:54 37.2 °F 37 °F 30.23 in WNW 0.2 mph 2 mph 99% 0.00 in 0 W/m2
03:59 37 °F 36.7 °F 30.23 in Calm     99% 0.00 in 0 W/m2
04:04 36.8 °F 36.5 °F 30.23 in West 0.9 mph 1.6 mph 99% 0.00 in 0 W/m2
04:09 36.6 °F 36.3 °F 30.23 in West 0.9 mph 2 mph 99% 0.00 in 0 W/m2
04:14 36.5 °F 36.2 °F 30.23 in West 2.2 mph 2 mph 99% 0.00 in 0 W/m2
04:19 36.4 °F 36.1 °F 30.23 in West 3.1 mph 3 mph 99% 0.00 in 0 W/m2
04:24 36.3 °F 36.1 °F 30.23 in West 3.8 mph 4 mph 99% 0.00 in 0 W/m2
04:29 36.5 °F 36.2 °F 30.23 in West 3.4 mph 5 mph 99% 0.00 in 0 W/m2
04:34 36.6 °F 36.3 °F 30.23 in West 3.9 mph 4 mph 99% 0.00 in 0 W/m2
04:39 36.7 °F 36.4 °F 30.24 in West 2.9 mph 5 mph 99% 0.00 in 0 W/m2
04:44 36.5 °F 36.2 °F 30.24 in West 2.2 mph 3 mph 99% 0.00 in 0 W/m2
04:49 36.3 °F 36.1 °F 30.24 in West 1.8 mph 2 mph 99% 0.00 in 0 W/m2
04:54 36.1 °F 35.9 °F 30.24 in WNW 1.8 mph 2 mph 99% 0.00 in 0 W/m2
04:59 36 °F 35.7 °F 30.24 in NW 1.8 mph 2 mph 99% 0.00 in 0 W/m2
05:04 36 °F 35.7 °F 30.24 in NNW 2.1 mph 2 mph 99% 0.00 in 0 W/m2
05:09 36 °F 35.7 °F 30.24 in NNW 2.1 mph 2 mph 99% 0.00 in 0 W/m2
05:14 36.1 °F 35.9 °F 30.24 in NW 1.7 mph 2 mph 99% 0.00 in 0 W/m2
05:19 36.1 °F 35.8 °F 30.24 in NW 2.2 mph 2 mph 99% 0.00 in 0 W/m2
05:24 36 °F 35.7 °F 30.24 in NW 0.9 mph 2 mph 99% 0.00 in 0 W/m2
05:29 35.8 °F 35.5 °F 30.24 in NNW 1 mph 2 mph 99% 0.00 in 0 W/m2
05:34 35.8 °F 35.5 °F 30.24 in NNW 2.2 mph 2 mph 99% 0.00 in 0 W/m2
05:39 35.8 °F 35.5 °F 30.24 in WNW 2.2 mph 2 mph 99% 0.00 in 0 W/m2
05:44 35.8 °F 35.5 °F 30.24 in WNW 2.2 mph 2 mph 99% 0.00 in 0 W/m2
05:49 35.8 °F 35.5 °F 30.24 in NW 1.7 mph 2 mph 99% 0.00 in 0 W/m2
05:54 35.8 °F 35.5 °F 30.24 in NW 1.9 mph 2 mph 99% 0.00 in 0 W/m2
05:59 35.7 °F 35.4 °F 30.24 in WNW 1.9 mph 2 mph 99% 0.00 in 0 W/m2
06:04 35.6 °F 35.3 °F 30.24 in NW 1.8 mph 2 mph 99% 0.00 in 0 W/m2
06:09 35.5 °F 35.2 °F 30.24 in WNW 2.9 mph 3 mph 99% 0.00 in 1 W/m2
06:14 35.4 °F 35.2 °F 30.24 in WNW 3.1 mph 3 mph 99% 0.00 in 3 W/m2
06:19 35.4 °F 35.2 °F 30.24 in West 2.3 mph 3 mph 99% 0.00 in 5 W/m2
06:24 35.3 °F 35.1 °F 30.24 in West 2.1 mph 3 mph 99% 0.00 in 9 W/m2
06:29 35.2 °F 35 °F 30.25 in WNW 2 mph 2 mph 99% 0.00 in 13 W/m2
06:34 35.1 °F 34.9 °F 30.25 in WNW 1.9 mph 2 mph 99% 0.00 in 16 W/m2
06:39 34.9 °F 34.6 °F 30.25 in WNW 1.8 mph 2.2 mph 99% 0.00 in 21 W/m2
06:44 35 °F 34.7 °F 30.25 in WNW 3.5 mph 3.1 mph 99% 0.00 in 26 W/m2
06:49 35.1 °F 34.8 °F 30.25 in West 3.4 mph 4 mph 99% 0.00 in 33 W/m2
06:54 35.2 °F 35 °F 30.25 in West 3.1 mph 4 mph 99% 0.00 in 35 W/m2
06:59 35.3 °F 35.1 °F 30.25 in West 2.9 mph 3 mph 99% 0.00 in 40 W/m2
07:04 35.5 °F 35.2 °F 30.25 in WNW 2.1 mph 3 mph 99% 0.00 in 47 W/m2
07:09 35.8 °F 35.5 °F 30.25 in WNW 0.7 mph 2 mph 99% 0.00 in 59 W/m2
07:14 36 °F 35.7 °F 30.25 in WNW 1.8 mph 2 mph 99% 0.00 in 72 W/m2
07:19 36.2 °F 36 °F 30.25 in WNW 1.2 mph 2 mph 99% 0.00 in 72 W/m2
07:24 36.5 °F 36.2 °F 30.25 in NW 1 mph 2 mph 99% 0.00 in 83 W/m2
07:29 36.7 °F 36.4 °F 30.25 in NNW 0.5 mph 1 mph 99% 0.00 in 84 W/m2
07:34 37 °F 36.8 °F 30.25 in NNW 1.2 mph 2 mph 99% 0.00 in 98 W/m2
07:39 37.4 °F 37.1 °F 30.25 in NNW 1.3 mph 2 mph 99% 0.00 in 124 W/m2
07:44 37.7 °F 37.5 °F 30.25 in NW 2.2 mph 2 mph 99% 0.00 in 133 W/m2
07:49 38 °F 37.8 °F 30.26 in WNW 2.3 mph 3 mph 99% 0.00 in 149 W/m2
07:54 38.4 °F 38.1 °F 30.26 in WNW 2.6 mph 3 mph 99% 0.00 in 153 W/m2
07:59 38.6 °F 38.3 °F 30.25 in WNW 3.2 mph 3 mph 99% 0.00 in 166 W/m2
08:04 38.9 °F 38.7 °F 30.25 in West 2.3 mph 3 mph 99% 0.00 in 188 W/m2
08:09 39.3 °F 39.1 °F 30.25 in WNW 2 mph 2 mph 99% 0.00 in 205 W/m2
08:14 39.9 °F 39.7 °F 30.25 in NW 1.8 mph 2 mph 99% 0.00 in 202 W/m2
08:19 40.5 °F 40.2 °F 30.25 in NW 2.4 mph 2 mph 99% 0.00 in 207 W/m2
08:24 40.9 °F 40.6 °F 30.25 in WSW 2.8 mph 3 mph 99% 0.00 in 207 W/m2
08:29 41.2 °F 40.9 °F 30.25 in WSW 2.2 mph 3 mph 99% 0.00 in 211 W/m2
08:34 41.7 °F 41.4 °F 30.25 in WSW 2.2 mph 2 mph 99% 0.00 in 267 W/m2
08:39 42.4 °F 42.2 °F 30.25 in WSW 2.3 mph 3 mph 99% 0.00 in 275 W/m2
08:44 43.3 °F 43 °F 30.25 in SW 2 mph 3 mph 99% 0.00 in 294 W/m2
08:49 43.9 °F 43.6 °F 30.25 in SW 2.3 mph 2 mph 99% 0.00 in 294 W/m2
08:54 44.5 °F 44.2 °F 30.25 in SW 2.6 mph 3 mph 99% 0.00 in 310 W/m2
08:59 44.9 °F 44.6 °F 30.25 in WSW 2.2 mph 3 mph 99% 0.00 in 331 W/m2
09:04 45.2 °F 45 °F 30.25 in WSW 3 mph 2 mph 99% 0.00 in 339 W/m2
09:09 45.8 °F 45.5 °F 30.25 in WSW 2.5 mph 3 mph 99% 0.00 in 354 W/m2
09:14 46.1 °F 45.8 °F 30.25 in SW 2.3 mph 2 mph 98.6% 0.00 in 355 W/m2
09:19 46.3 °F 45.8 °F 30.25 in ESE 4.5 mph 4 mph 98% 0.00 in 362 W/m2
09:24 46.6 °F 45.6 °F 30.25 in NE 4 mph 6 mph 96.4% 0.00 in 378 W/m2
09:29 47.2 °F 46.1 °F 30.25 in NNE 5.3 mph 5 mph 96% 0.00 in 395 W/m2
09:34 47.8 °F 46.7 °F 30.25 in NNE 5 mph 6 mph 96% 0.00 in 406 W/m2
09:39 48.5 °F 47.3 °F 30.25 in NNE 5.4 mph 6 mph 95.6% 0.00 in 419 W/m2
09:44 48.9 °F 47.6 °F 30.25 in NNE 6.7 mph 6 mph 95% 0.00 in 430 W/m2
09:49 49.5 °F 47.8 °F 30.25 in NNE 5.8 mph 9 mph 94.2% 0.00 in 436 W/m2
09:54 49.6 °F 47.8 °F 30.25 in NNE 6.8 mph 7 mph 93.3% 0.00 in 444 W/m2
09:59 49.7 °F 47.7 °F 30.25 in NNE 6.2 mph 7 mph 92.6% 0.00 in 451 W/m2
10:04 49.9 °F 48 °F 30.25 in NNE 5.9 mph 7 mph 93% 0.00 in 457 W/m2
10:09 50.4 °F 47.9 °F 30.25 in NNE 4.2 mph 6 mph 91.1% 0.00 in 464 W/m2
10:14 51.2 °F 48.7 °F 30.25 in North 4 mph 5 mph 91.1% 0.00 in 471 W/m2
10:19 51.6 °F 48.8 °F 30.25 in NNE 4.2 mph 5 mph 90% 0.00 in 474 W/m2
10:24 51.9 °F 48.9 °F 30.25 in NNE 4.7 mph 5 mph 89.6% 0.00 in 479 W/m2
10:29 52 °F 48.8 °F 30.25 in NNE 6.3 mph 6 mph 89% 0.00 in 483 W/m2
10:34 52.3 °F 49.2 °F 30.25 in NNE 5.2 mph 8 mph 89% 0.00 in 465 W/m2
10:39 52.8 °F 49.6 °F 30.25 in NNE 7 mph 6.3 mph 88.8% 0.00 in 463 W/m2
10:44 52.9 °F 49.6 °F 30.25 in NE 5.5 mph 8 mph 88.6% 0.00 in 376 W/m2
10:49 53 °F 49.6 °F 30.25 in ENE 4.7 mph 7 mph 88.4% 0.00 in 465 W/m2
10:54 53.4 °F 50.2 °F 30.24 in NE 4.4 mph 6 mph 88.6% 0.00 in 275 W/m2
10:59 54.2 °F 50.8 °F 30.24 in NNE 4.2 mph 6 mph 88% 0.00 in 280 W/m2
11:04 55.2 °F 51.7 °F 30.24 in NNE 4.6 mph 6 mph 87.8% 0.00 in 353 W/m2
11:09 55.9 °F 51.6 °F 30.24 in NNE 5.9 mph 7 mph 85.6% 0.00 in 294 W/m2
11:14 55.9 °F 51.6 °F 30.24 in NE 5.2 mph 7 mph 85.5% 0.00 in 324 W/m2
11:19 56.5 °F 52.2 °F 30.23 in NE 4.5 mph 6 mph 85.6% 0.00 in 279 W/m2
11:24 57.5 °F 52.9 °F 30.23 in NNE 5.8 mph 5 mph 84.5% 0.00 in 365 W/m2
11:29 57.9 °F 53.1 °F 30.23 in NNE 5.6 mph 7 mph 83.9% 0.00 in 365 W/m2
11:34 58.5 °F 53.4 °F 30.23 in NNE 5.9 mph 6 mph 83.2% 0.00 in 320 W/m2
11:39 58.9 °F 53.4 °F 30.22 in North 6.2 mph 7 mph 82.1% 0.00 in 454 W/m2
11:44 59.2 °F 53.6 °F 30.22 in NNE 4.6 mph 7 mph 81.6% 0.00 in 441 W/m2
11:49 60 °F 54.1 °F 30.22 in NNE 5.8 mph 6 mph 80.8% 0.00 in 476 W/m2
11:54 60.3 °F 54 °F 30.22 in NNE 6.5 mph 7 mph 79.8% 0.00 in 398 W/m2
11:59 60.3 °F 54.1 °F 30.22 in NNE 7 mph 7 mph 80% 0.00 in 470 W/m2
12:04 60.7 °F 54.5 °F 30.21 in NNE 5.8 mph 8 mph 80% 0.00 in 479 W/m2
12:09 61.1 °F 54.5 °F 30.21 in NNE 6.5 mph 7 mph 79.2% 0.00 in 410 W/m2
12:14 61.3 °F 54.8 °F 30.21 in NNE 6.8 mph 7 mph 79.2% 0.00 in 396 W/m2
12:19 61.6 °F 55 °F 30.21 in NNE 6.5 mph 8 mph 78.8% 0.00 in 411 W/m2
12:24 62 °F 55.2 °F 30.21 in North 6.3 mph 7 mph 78.6% 0.00 in 466 W/m2
12:29 62.2 °F 55.3 °F 30.21 in North 6.5 mph 7 mph 78% 0.00 in 408 W/m2
12:34 62.3 °F 55.4 °F 30.21 in NNE 5.3 mph 7 mph 78% 0.00 in 455 W/m2
12:39 62.9 °F 55.8 °F 30.21 in NNE 5.6 mph 6 mph 77.8% 0.00 in 444 W/m2
12:44 63.1 °F 55.8 °F 30.20 in NNE 6.5 mph 7 mph 77% 0.00 in 440 W/m2
12:49 63.4 °F 55.9 °F 30.20 in NNE 5.3 mph 7 mph 76.5% 0.00 in 430 W/m2
12:54 63.8 °F 55.6 °F 30.20 in NNE 6.9 mph 7 mph 74.7% 0.00 in 423 W/m2
12:59 63.9 °F 55.4 °F 30.19 in North 6.8 mph 8 mph 74% 0.00 in 373 W/m2
13:04 64 °F 55.6 °F 30.19 in NNE 6.9 mph 8 mph 74.2% 0.00 in 410 W/m2
13:09 64.3 °F 55.8 °F 30.19 in NNE 6.3 mph 8 mph 73.9% 0.00 in 403 W/m2
13:14 64.6 °F 55.8 °F 30.19 in NNE 6.1 mph 7 mph 73.4% 0.00 in 394 W/m2
13:19 64.8 °F 55.9 °F 30.19 in NNE 6.6 mph 8 mph 73.1% 0.00 in 380 W/m2
13:24 64.8 °F 55.9 °F 30.19 in NNE 6 mph 8 mph 72.8% 0.00 in 373 W/m2
13:29 65 °F 56.2 °F 30.19 in NNE 5.8 mph 7 mph 73% 0.00 in 361 W/m2
13:34 65.1 °F 56.1 °F 30.19 in North 6.1 mph 6 mph 72.6% 0.00 in 347 W/m2
13:39 65.1 °F 56.1 °F 30.19 in North 7.5 mph 7 mph 72.5% 0.00 in 334 W/m2
13:44 65 °F 55.9 °F 30.19 in North 6.6 mph 9 mph 72.1% 0.00 in 323 W/m2
13:49 64.9 °F 55.7 °F 30.19 in NNE 7.1 mph 8 mph 72% 0.00 in 312 W/m2
13:54 64.9 °F 55.6 °F 30.19 in North 7 mph 8 mph 72% 0.00 in 301 W/m2
13:59 64.7 °F 55.5 °F 30.19 in North 6.2 mph 8 mph 72.1% 0.00 in 284 W/m2
14:04 64.6 °F 55.7 °F 30.19 in North 6.3 mph 7 mph 72.9% 0.00 in 268 W/m2
14:09 64.6 °F 55.6 °F 30.18 in North 6.8 mph 7 mph 72.6% 0.00 in 261 W/m2
14:14 64.6 °F 55.5 °F 30.18 in North 7.4 mph 7 mph 72.5% 0.00 in 247 W/m2
14:19 64.6 °F 55.6 °F 30.18 in North 8.3 mph 8 mph 72.8% 0.00 in 236 W/m2
14:24 64.6 °F 55.7 °F 30.18 in North 6.6 mph 10 mph 73% 0.00 in 225 W/m2
14:29 64.6 °F 55.7 °F 30.18 in North 5.2 mph 7 mph 73% 0.00 in 213 W/m2
14:34 64.7 °F 55.8 °F 30.18 in North 5.6 mph 6 mph 73% 0.00 in 199 W/m2
14:39 64.5 °F 55.7 °F 30.18 in North 7 mph 6 mph 73% 0.00 in 187 W/m2
14:44 64.4 °F 55.6 °F 30.18 in North 6.1 mph 8 mph 73% 0.00 in 173 W/m2
14:49 64.1 °F 55.3 °F 30.18 in North 6.4 mph 7 mph 73% 0.00 in 160 W/m2
14:54 64 °F 55.1 °F 30.18 in North 6.5 mph 7 mph 73% 0.00 in 147 W/m2
14:59 63.7 °F 55.1 °F 30.18 in North 5 mph 8 mph 73.6% 0.00 in 135 W/m2
15:04 63.4 °F 55 °F 30.18 in North 8.2 mph 7 mph 74% 0.00 in 121 W/m2
15:09 63.1 °F 54.8 °F 30.18 in North 7.9 mph 11 mph 74.3% 0.00 in 109 W/m2
15:14 62.9 °F 54.8 °F 30.18 in North 6.1 mph 8 mph 75% 0.00 in 98 W/m2
15:19 62.6 °F 54.7 °F 30.18 in North 8.1 mph 6 mph 75.2% 0.00 in 85 W/m2
15:24 62.4 °F 55.1 °F 30.18 in North 7.2 mph 10 mph 76.9% 0.00 in 75 W/m2
15:29 62.3 °F 55 °F 30.18 in North 7.2 mph 9 mph 77% 0.00 in 65 W/m2
15:34 62 °F 54.9 °F 30.18 in North 7.1 mph 9 mph 77.6% 0.00 in 56 W/m2
15:39 61.7 °F 54.7 °F 30.18 in North 7.3 mph 8 mph 78% 0.00 in 47 W/m2
15:44 61.3 °F 54.5 °F 30.18 in North 8.4 mph 8 mph 78.5% 0.00 in 39 W/m2
15:49 61 °F 54.4 °F 30.18 in North 7.8 mph 10 mph 79% 0.00 in 32 W/m2
15:54 60.7 °F 54.2 °F 30.18 in North 6.9 mph 8 mph 79.1% 0.00 in 25 W/m2
15:59 60.4 °F 54.2 °F 30.18 in North 7.2 mph 7 mph 80% 0.00 in 20 W/m2
16:04 60.2 °F 54 °F 30.18 in North 6.2 mph 8 mph 80% 0.00 in 14 W/m2
16:09 59.8 °F 53.9 °F 30.18 in North 5.2 mph 9 mph 80.6% 0.00 in 11 W/m2
16:14 59.5 °F 53.7 °F 30.18 in NNW 4.5 mph 7 mph 81% 0.00 in 8 W/m2
16:19 59.2 °F 53.6 °F 30.18 in North 7.7 mph 5.4 mph 81.6% 0.00 in 4 W/m2
16:24 58.9 °F 53.8 °F 30.19 in North 6.7 mph 9 mph 83% 0.00 in 2 W/m2
16:29 58.6 °F 53.6 °F 30.19 in North 6.5 mph 8 mph 83.1% 0.00 in 1 W/m2
16:34 58.4 °F 53.6 °F 30.19 in North 6.7 mph 7 mph 84% 0.00 in 0 W/m2
16:39 58.1 °F 53.3 °F 30.19 in North 6.3 mph 8 mph 84% 0.00 in 0 W/m2
16:44 57.9 °F 53.1 °F 30.19 in NNW 4.4 mph 7 mph 84% 0.00 in 0 W/m2
16:49 57.7 °F 53 °F 30.19 in NNW 2.3 mph 5 mph 84.3% 0.00 in 0 W/m2
16:54 57.4 °F 52.9 °F 30.19 in WNW 2.4 mph 3 mph 85% 0.00 in 0 W/m2
16:59 56.8 °F 52.4 °F 30.20 in SSW 2.3 mph 4 mph 85% 0.00 in 0 W/m2
17:04 56.5 °F 52 °F 30.20 in SSW 1.1 mph 3 mph 85% 0.00 in 0 W/m2
17:09 56.2 °F 51.8 °F 30.20 in West 0.3 mph 1 mph 85.1% 0.00 in 0 W/m2
17:14 55.8 °F 51.7 °F 30.20 in NNW 0.8 mph 1 mph 86% 0.00 in 0 W/m2
17:19 55.4 °F 51.3 °F 30.20 in West 1.8 mph 2 mph 86% 0.00 in 0 W/m2
17:24 55 °F 51.2 °F 30.20 in WSW 0.9 mph 2 mph 87.2% 0.00 in 0 W/m2
17:29 54.6 °F 51.1 °F 30.20 in WSW 1.7 mph 1.6 mph 88% 0.00 in 0 W/m2
17:34 54.2 °F 50.9 °F 30.21 in WSW 2 mph 3 mph 88.3% 0.00 in 0 W/m2
17:39 53.9 °F 50.8 °F 30.21 in WSW 1.4 mph 3 mph 89% 0.00 in 0 W/m2
17:44 53.5 °F 50.3 °F 30.21 in WSW 2 mph 2 mph 89% 0.00 in 0 W/m2
17:49 53.1 °F 50.1 °F 30.21 in West 1.2 mph 2 mph 89.3% 0.00 in 0 W/m2
17:54 52.8 °F 49.9 °F 30.21 in West 2.1 mph 2 mph 90% 0.00 in 0 W/m2
17:59 52.4 °F 49.6 °F 30.21 in WSW 1.7 mph 2 mph 90% 0.00 in 0 W/m2
18:04 52.1 °F 49.4 °F 30.21 in West 1.7 mph 2 mph 90.6% 0.00 in 0 W/m2
18:09 51.7 °F 49.2 °F 30.21 in West 2.5 mph 2 mph 91% 0.00 in 0 W/m2
18:14 51.4 °F 48.8 °F 30.21 in WSW 3 mph 3 mph 91% 0.00 in 0 W/m2
18:19 51.1 °F 48.5 °F 30.21 in WSW 3 mph 3 mph 91% 0.00 in 0 W/m2
18:24 50.6 °F 48.1 °F 30.21 in West 4.2 mph 5 mph 91% 0.00 in 0 W/m2
18:29 50.2 °F 47.8 °F 30.21 in West 3.2 mph 5 mph 91.3% 0.00 in 0 W/m2
18:34 49.8 °F 47.3 °F 30.21 in WSW 2.2 mph 4 mph 91.1% 0.00 in 0 W/m2
18:39 49.5 °F 47.2 °F 30.21 in WSW 2.2 mph 2 mph 91.9% 0.00 in 0 W/m2
18:44 49.2 °F 47.2 °F 30.21 in WNW 2 mph 2 mph 93% 0.00 in 0 W/m2
18:49 48.9 °F 47.2 °F 30.22 in NW 2 mph 2 mph 93.8% 0.00 in 0 W/m2
18:54 48.8 °F 47.2 °F 30.22 in NW 2.2 mph 3 mph 94% 0.00 in 0 W/m2
18:59 48.6 °F 47.2 °F 30.22 in WNW 2.1 mph 2 mph 94.8% 0.00 in 0 W/m2
19:04 48.5 °F 46.9 °F 30.22 in West 1.7 mph 2 mph 94.5% 0.00 in 0 W/m2
19:09 48.1 °F 46.5 °F 30.22 in West 2.1 mph 2 mph 94% 0.00 in 0 W/m2
19:14 47.8 °F 46.1 °F 30.22 in WNW 1.4 mph 2 mph 94% 0.00 in 0 W/m2
19:19 47.5 °F 46 °F 30.22 in WNW 1.5 mph 2 mph 94.8% 0.00 in 0 W/m2
19:24 47.3 °F 45.9 °F 30.22 in WSW 1.7 mph 2 mph 95% 0.00 in 0 W/m2
19:29 47 °F 45.7 °F 30.22 in WSW 2.3 mph 2 mph 95% 0.00 in 0 W/m2
19:34 46.8 °F 45.6 °F 30.22 in West 2.5 mph 3 mph 95.3% 0.00 in 0 W/m2
19:39 46.7 °F 45.7 °F 30.22 in West 2.2 mph 3 mph 96.2% 0.00 in 0 W/m2
19:44 46.6 °F 46 °F 30.22 in West 2.2 mph 2 mph 97.9% 0.00 in 0 W/m2
19:49 46.6 °F 46 °F 30.22 in NW 0.8 mph 2 mph 98% 0.00 in 0 W/m2
19:54 46.5 °F 45.6 °F 30.23 in Calm   2 mph 96.7% 0.00 in 0 W/m2
19:59 46.3 °F 45.2 °F 30.23 in Calm     96% 0.00 in 0 W/m2
20:04 46 °F 45 °F 30.23 in Calm     96% 0.00 in 0 W/m2
20:09 45.9 °F 44.8 °F 30.23 in North 0.3 mph   96% 0.00 in 0 W/m2
20:14 45.6 °F 45 °F 30.23 in North 1.3 mph 2 mph 97.6% 0.00 in 0 W/m2
20:19 45.4 °F 44.9 °F 30.23 in NNW 1 mph 2 mph 98% 0.00 in 0 W/m2
20:24 45.2 °F 44.5 °F 30.23 in WNW 1.2 mph 1 mph 97.4% 0.00 in 0 W/m2
20:29 44.9 °F 43.9 °F 30.23 in WNW 0.8 mph 2 mph 96% 0.00 in 0 W/m2
20:34 44.6 °F 43.5 °F 30.23 in NW 1.3 mph 2 mph 96% 0.00 in 0 W/m2
20:39 44.3 °F 43.2 °F 30.23 in West 3.1 mph 2.5 mph 96% 0.00 in 0 W/m2
20:44 43.9 °F 42.8 °F 30.23 in West 4 mph 5 mph 96% 0.00 in 0 W/m2
20:49 43.6 °F 42.9 °F 30.23 in WNW 3.6 mph 5 mph 97.3% 0.00 in 0 W/m2
20:54 43.5 °F 43.2 °F 30.23 in WNW 3.5 mph 5 mph 98.6% 0.00 in 0 W/m2
20:59 43.6 °F 43.3 °F 30.23 in WNW 3.2 mph 4 mph 99% 0.00 in 0 W/m2
21:04 43.5 °F 43.3 °F 30.23 in WNW 2.8 mph 4 mph 99% 0.00 in 0 W/m2
21:09 43.6 °F 43.3 °F 30.23 in NW 3.3 mph 4 mph 99% 0.00 in 0 W/m2
21:14 43.6 °F 43.3 °F 30.23 in WNW 1.8 mph 3 mph 99% 0.00 in 0 W/m2
21:19 43.3 °F 43 °F 30.23 in West 1.7 mph 2 mph 98.7% 0.00 in 0 W/m2
21:24 43.1 °F 42.6 °F 30.23 in WNW 1 mph 2 mph 98% 0.00 in 0 W/m2
21:29 42.9 °F 42.4 °F 30.23 in NNW 1.5 mph 2 mph 98% 0.00 in 0 W/m2
21:34 42.7 °F 42.4 °F 30.23 in NNW 0.5 mph 2 mph 98.7% 0.00 in 0 W/m2
21:39 42.5 °F 42.3 °F 30.23 in NNW 1.1 mph 1 mph 99% 0.00 in 0 W/m2
21:44 42.3 °F 42 °F 30.23 in NNW 0.5 mph 1 mph 98.5% 0.00 in 0 W/m2
21:49 42.1 °F 41.8 °F 30.23 in NW 1.4 mph 1 mph 98.8% 0.00 in 0 W/m2
21:54 41.9 °F 41.6 °F 30.23 in NW 0.9 mph 2 mph 99% 0.00 in 0 W/m2
21:59 41.8 °F 41.5 °F 30.23 in NNW 0.3 mph 1 mph 99% 0.00 in 0 W/m2
22:04 41.5 °F 41.3 °F 30.23 in WNW 1 mph 1.8 mph 99% 0.00 in 0 W/m2
22:09 41.4 °F 41.1 °F 30.24 in West 2.1 mph 2 mph 99% 0.00 in 0 W/m2
22:14 41.2 °F 40.9 °F 30.23 in WNW 1.6 mph 2 mph 99% 0.00 in 0 W/m2
22:19 41 °F 40.7 °F 30.23 in NW 0.4 mph 2 mph 99% 0.00 in 0 W/m2
22:24 40.8 °F 40.6 °F 30.24 in WNW 1 mph 1 mph 99% 0.00 in 0 W/m2
22:29 40.7 °F 40.5 °F 30.24 in WNW 1.2 mph 2 mph 99% 0.00 in 0 W/m2
22:34 40.6 °F 40.4 °F 30.24 in WNW 1.4 mph 1 mph 99% 0.00 in 0 W/m2
22:39 40.6 °F 40.4 °F 30.24 in WNW 0.9 mph 2 mph 99% 0.00 in 0 W/m2
22:44 40.6 °F 40.4 °F 30.24 in West 0.9 mph 2 mph 99% 0.00 in 0 W/m2
22:49 40.5 °F 40.3 °F 30.24 in Calm   1 mph 99% 0.00 in 0 W/m2
22:54 40.3 °F 40 °F 30.24 in West 0.8 mph 0.2 mph 99% 0.00 in 0 W/m2
22:59 40.1 °F 39.8 °F 30.24 in WNW 0.8 mph 2 mph 99% 0.00 in 0 W/m2
23:04 40 °F 39.7 °F 30.24 in NNW 1.3 mph 2 mph 99% 0.00 in 0 W/m2
23:09 39.8 °F 39.6 °F 30.24 in NW 2 mph 2 mph 99% 0.00 in 0 W/m2
23:14 39.7 °F 39.4 °F 30.24 in West 2.6 mph 2 mph 99% 0.00 in 0 W/m2
23:19 39.4 °F 39.1 °F 30.24 in West 3.4 mph 3.4 mph 99% 0.00 in 0 W/m2
23:24 39.2 °F 38.9 °F 30.24 in West 3.7 mph 5 mph 99% 0.00 in 0 W/m2
23:29 39 °F 38.8 °F 30.24 in West 2.3 mph 4 mph 99% 0.00 in 0 W/m2
23:34 39 °F 38.8 °F 30.24 in West 2.8 mph 3 mph 99% 0.00 in 0 W/m2
23:39 39 °F 38.8 °F 30.24 in West 3.3 mph 3 mph 99% 0.00 in 0 W/m2
23:44 39.1 °F 38.8 °F 30.24 in West 3.4 mph 3 mph 99% 0.00 in 0 W/m2
23:49 39.3 °F 39 °F 30.24 in West 2.9 mph 3 mph 99% 0.00 in 0 W/m2
23:54 39.5 °F 39.2 °F 30.24 in West 3.5 mph 4 mph 99% 0.00 in 0 W/m2
23:59 39.6 °F 39.4 °F 30.24 in West 3.4 mph 4 mph 99% 0.00 in 0 W/m2
Knjazevac, Serbia
Compliments of Weather Underground - 4 mb